sensor_id;sensor_type;location;lat;lon;timestamp;temperature;humidity
4364;DHT22;15337;48.202;12.770;2022-08-21T00:00:10;18.10;99.90
4364;DHT22;15337;48.202;12.770;2022-08-21T00:02:44;18.10;99.90
4364;DHT22;15337;48.202;12.770;2022-08-21T00:05:11;18.10;99.90
4364;DHT22;15337;48.202;12.770;2022-08-21T00:07:38;18.10;99.90
4364;DHT22;15337;48.202;12.770;2022-08-21T00:10:06;18.10;99.90
4364;DHT22;15337;48.202;12.770;2022-08-21T00:12:34;18.10;99.90
4364;DHT22;15337;48.202;12.770;2022-08-21T00:15:02;18.10;99.90
4364;DHT22;15337;48.202;12.770;2022-08-21T00:17:29;18.10;99.90
4364;DHT22;15337;48.202;12.770;2022-08-21T00:19:56;18.10;99.90
4364;DHT22;15337;48.202;12.770;2022-08-21T00:22:23;18.20;99.90
4364;DHT22;15337;48.202;12.770;2022-08-21T00:24:49;18.10;99.90
4364;DHT22;15337;48.202;12.770;2022-08-21T00:27:16;18.20;99.90
4364;DHT22;15337;48.202;12.770;2022-08-21T00:29:45;18.10;99.90
4364;DHT22;15337;48.202;12.770;2022-08-21T00:32:12;18.20;99.90
4364;DHT22;15337;48.202;12.770;2022-08-21T00:34:39;18.20;99.90
4364;DHT22;15337;48.202;12.770;2022-08-21T00:37:05;18.20;99.90
4364;DHT22;15337;48.202;12.770;2022-08-21T00:39:33;18.20;99.90
4364;DHT22;15337;48.202;12.770;2022-08-21T00:42:00;18.20;99.90
4364;DHT22;15337;48.202;12.770;2022-08-21T00:44:28;18.20;99.90
4364;DHT22;15337;48.202;12.770;2022-08-21T00:46:56;18.20;99.90
4364;DHT22;15337;48.202;12.770;2022-08-21T00:49:23;18.20;99.90
4364;DHT22;15337;48.202;12.770;2022-08-21T00:51:52;18.20;99.90
4364;DHT22;15337;48.202;12.770;2022-08-21T00:54:22;18.20;99.90
4364;DHT22;15337;48.202;12.770;2022-08-21T00:56:55;18.20;99.90
4364;DHT22;15337;48.202;12.770;2022-08-21T00:59:23;18.20;99.90
4364;DHT22;15337;48.202;12.770;2022-08-21T01:01:52;18.20;99.90
4364;DHT22;15337;48.202;12.770;2022-08-21T01:04:20;18.20;99.90
4364;DHT22;15337;48.202;12.770;2022-08-21T01:06:48;18.20;99.90
4364;DHT22;15337;48.202;12.770;2022-08-21T01:09:17;18.20;99.90
4364;DHT22;15337;48.202;12.770;2022-08-21T01:11:45;18.20;99.90
4364;DHT22;15337;48.202;12.770;2022-08-21T01:14:13;18.20;99.90
4364;DHT22;15337;48.202;12.770;2022-08-21T01:16:43;18.20;99.90
4364;DHT22;15337;48.202;12.770;2022-08-21T01:19:12;18.20;99.90
4364;DHT22;15337;48.202;12.770;2022-08-21T01:21:41;18.20;99.90
4364;DHT22;15337;48.202;12.770;2022-08-21T01:24:09;18.20;99.90
4364;DHT22;15337;48.202;12.770;2022-08-21T01:26:36;18.20;99.90
4364;DHT22;15337;48.202;12.770;2022-08-21T01:29:09;18.20;99.90
4364;DHT22;15337;48.202;12.770;2022-08-21T01:31:38;18.20;99.90
4364;DHT22;15337;48.202;12.770;2022-08-21T01:34:05;18.20;99.90
4364;DHT22;15337;48.202;12.770;2022-08-21T01:36:32;18.20;99.90
4364;DHT22;15337;48.202;12.770;2022-08-21T01:39:03;18.20;99.90
4364;DHT22;15337;48.202;12.770;2022-08-21T01:41:30;18.20;99.90
4364;DHT22;15337;48.202;12.770;2022-08-21T01:43:57;18.20;99.90
4364;DHT22;15337;48.202;12.770;2022-08-21T01:46:24;18.20;99.90
4364;DHT22;15337;48.202;12.770;2022-08-21T01:48:51;18.20;99.90
4364;DHT22;15337;48.202;12.770;2022-08-21T01:51:18;18.10;99.90
4364;DHT22;15337;48.202;12.770;2022-08-21T01:53:45;18.20;99.90
4364;DHT22;15337;48.202;12.770;2022-08-21T01:56:15;18.10;99.90
4364;DHT22;15337;48.202;12.770;2022-08-21T01:58:44;18.10;99.90
4364;DHT22;15337;48.202;12.770;2022-08-21T02:01:12;18.10;99.90
4364;DHT22;15337;48.202;12.770;2022-08-21T02:03:40;18.00;99.90
4364;DHT22;15337;48.202;12.770;2022-08-21T02:06:12;18.10;99.90
4364;DHT22;15337;48.202;12.770;2022-08-21T02:08:40;18.00;99.90
4364;DHT22;15337;48.202;12.770;2022-08-21T02:11:07;18.00;99.90
4364;DHT22;15337;48.202;12.770;2022-08-21T02:13:35;18.00;99.90
4364;DHT22;15337;48.202;12.770;2022-08-21T02:16:03;18.00;99.90
4364;DHT22;15337;48.202;12.770;2022-08-21T02:18:30;17.90;99.90
4364;DHT22;15337;48.202;12.770;2022-08-21T02:20:57;17.90;99.90
4364;DHT22;15337;48.202;12.770;2022-08-21T02:23:24;17.90;99.90
4364;DHT22;15337;48.202;12.770;2022-08-21T02:25:51;17.90;99.90
4364;DHT22;15337;48.202;12.770;2022-08-21T02:28:18;17.80;99.90
4364;DHT22;15337;48.202;12.770;2022-08-21T02:30:47;17.90;99.90
4364;DHT22;15337;48.202;12.770;2022-08-21T02:33:15;17.80;99.90
4364;DHT22;15337;48.202;12.770;2022-08-21T02:35:43;17.80;99.90
4364;DHT22;15337;48.202;12.770;2022-08-21T02:38:13;17.80;99.90
4364;DHT22;15337;48.202;12.770;2022-08-21T02:40:43;17.80;99.90
4364;DHT22;15337;48.202;12.770;2022-08-21T02:43:10;17.80;99.90
4364;DHT22;15337;48.202;12.770;2022-08-21T02:45:38;17.80;99.90
4364;DHT22;15337;48.202;12.770;2022-08-21T02:48:09;17.80;99.90
4364;DHT22;15337;48.202;12.770;2022-08-21T02:50:40;17.80;99.90
4364;DHT22;15337;48.202;12.770;2022-08-21T02:53:08;17.80;99.90
4364;DHT22;15337;48.202;12.770;2022-08-21T02:55:36;17.80;99.90
4364;DHT22;15337;48.202;12.770;2022-08-21T02:58:04;17.80;99.90
4364;DHT22;15337;48.202;12.770;2022-08-21T03:00:34;17.80;99.90
4364;DHT22;15337;48.202;12.770;2022-08-21T03:03:02;17.80;99.90
4364;DHT22;15337;48.202;12.770;2022-08-21T03:05:31;17.80;99.90
4364;DHT22;15337;48.202;12.770;2022-08-21T03:08:00;17.80;99.90
4364;DHT22;15337;48.202;12.770;2022-08-21T03:10:27;17.80;99.90
4364;DHT22;15337;48.202;12.770;2022-08-21T03:12:54;17.80;99.90
4364;DHT22;15337;48.202;12.770;2022-08-21T03:15:22;17.80;99.90
4364;DHT22;15337;48.202;12.770;2022-08-21T03:17:50;17.80;99.90
4364;DHT22;15337;48.202;12.770;2022-08-21T03:20:20;17.80;99.90
4364;DHT22;15337;48.202;12.770;2022-08-21T03:22:51;17.80;99.90
4364;DHT22;15337;48.202;12.770;2022-08-21T03:25:18;17.80;99.90
4364;DHT22;15337;48.202;12.770;2022-08-21T03:27:46;17.80;99.90
4364;DHT22;15337;48.202;12.770;2022-08-21T03:30:16;17.70;99.90
4364;DHT22;15337;48.202;12.770;2022-08-21T03:32:43;17.70;99.90
4364;DHT22;15337;48.202;12.770;2022-08-21T03:35:10;17.70;99.90
4364;DHT22;15337;48.202;12.770;2022-08-21T03:37:37;17.70;99.90
4364;DHT22;15337;48.202;12.770;2022-08-21T03:40:07;17.70;99.90
4364;DHT22;15337;48.202;12.770;2022-08-21T03:42:34;17.70;99.90
4364;DHT22;15337;48.202;12.770;2022-08-21T03:45:02;17.70;99.90
4364;DHT22;15337;48.202;12.770;2022-08-21T03:47:29;17.60;99.90
4364;DHT22;15337;48.202;12.770;2022-08-21T03:49:56;17.60;99.90
4364;DHT22;15337;48.202;12.770;2022-08-21T03:52:23;17.60;99.90
4364;DHT22;15337;48.202;12.770;2022-08-21T03:54:50;17.50;99.90
4364;DHT22;15337;48.202;12.770;2022-08-21T03:57:18;17.50;99.90
4364;DHT22;15337;48.202;12.770;2022-08-21T03:59:45;17.50;99.90
4364;DHT22;15337;48.202;12.770;2022-08-21T04:02:14;17.50;99.90
4364;DHT22;15337;48.202;12.770;2022-08-21T04:04:42;17.50;99.90
4364;DHT22;15337;48.202;12.770;2022-08-21T04:07:09;17.50;99.90
4364;DHT22;15337;48.202;12.770;2022-08-21T04:09:36;17.50;99.90
4364;DHT22;15337;48.202;12.770;2022-08-21T04:12:03;17.50;99.90
4364;DHT22;15337;48.202;12.770;2022-08-21T04:14:32;17.50;99.90
4364;DHT22;15337;48.202;12.770;2022-08-21T04:16:59;17.50;99.90
4364;DHT22;15337;48.202;12.770;2022-08-21T04:19:26;17.50;99.90
4364;DHT22;15337;48.202;12.770;2022-08-21T04:21:53;17.50;99.90
4364;DHT22;15337;48.202;12.770;2022-08-21T04:24:20;17.50;99.90
4364;DHT22;15337;48.202;12.770;2022-08-21T04:26:47;17.50;99.90
4364;DHT22;15337;48.202;12.770;2022-08-21T04:29:13;17.40;99.90
4364;DHT22;15337;48.202;12.770;2022-08-21T04:31:42;17.40;99.90
4364;DHT22;15337;48.202;12.770;2022-08-21T04:34:09;17.40;99.90
4364;DHT22;15337;48.202;12.770;2022-08-21T04:36:36;17.40;99.90
4364;DHT22;15337;48.202;12.770;2022-08-21T04:39:03;17.40;99.90
4364;DHT22;15337;48.202;12.770;2022-08-21T04:41:30;17.40;99.90
4364;DHT22;15337;48.202;12.770;2022-08-21T04:43:57;17.40;99.90
4364;DHT22;15337;48.202;12.770;2022-08-21T04:46:25;17.40;99.90
4364;DHT22;15337;48.202;12.770;2022-08-21T04:48:53;17.40;99.90
4364;DHT22;15337;48.202;12.770;2022-08-21T04:51:24;17.40;99.90
4364;DHT22;15337;48.202;12.770;2022-08-21T04:53:55;17.40;99.90
4364;DHT22;15337;48.202;12.770;2022-08-21T04:56:26;17.40;99.90
4364;DHT22;15337;48.202;12.770;2022-08-21T04:58:55;17.50;99.90
4364;DHT22;15337;48.202;12.770;2022-08-21T05:01:24;17.40;99.90
4364;DHT22;15337;48.202;12.770;2022-08-21T05:03:55;17.40;99.90
4364;DHT22;15337;48.202;12.770;2022-08-21T05:06:24;17.50;99.90
4364;DHT22;15337;48.202;12.770;2022-08-21T05:08:53;17.50;99.90
4364;DHT22;15337;48.202;12.770;2022-08-21T05:11:22;17.50;99.90
4364;DHT22;15337;48.202;12.770;2022-08-21T05:13:49;17.50;99.90
4364;DHT22;15337;48.202;12.770;2022-08-21T05:16:16;17.50;99.90
4364;DHT22;15337;48.202;12.770;2022-08-21T05:18:43;17.60;99.90
4364;DHT22;15337;48.202;12.770;2022-08-21T05:21:11;17.60;99.90
4364;DHT22;15337;48.202;12.770;2022-08-21T05:23:38;17.60;99.90
4364;DHT22;15337;48.202;12.770;2022-08-21T05:26:05;17.60;99.90
4364;DHT22;15337;48.202;12.770;2022-08-21T05:28:32;17.60;99.90
4364;DHT22;15337;48.202;12.770;2022-08-21T05:30:59;17.60;99.90
4364;DHT22;15337;48.202;12.770;2022-08-21T05:33:26;17.60;99.90
4364;DHT22;15337;48.202;12.770;2022-08-21T05:35:54;17.60;99.90
4364;DHT22;15337;48.202;12.770;2022-08-21T05:38:23;17.60;99.90
4364;DHT22;15337;48.202;12.770;2022-08-21T05:40:50;17.70;99.90
4364;DHT22;15337;48.202;12.770;2022-08-21T05:43:17;17.70;99.90
4364;DHT22;15337;48.202;12.770;2022-08-21T05:45:44;17.70;99.90
4364;DHT22;15337;48.202;12.770;2022-08-21T05:48:13;17.70;99.90
4364;DHT22;15337;48.202;12.770;2022-08-21T05:50:41;17.80;99.90
4364;DHT22;15337;48.202;12.770;2022-08-21T05:53:08;17.80;99.90
4364;DHT22;15337;48.202;12.770;2022-08-21T05:55:38;17.80;99.90
4364;DHT22;15337;48.202;12.770;2022-08-21T05:58:05;17.80;99.90
4364;DHT22;15337;48.202;12.770;2022-08-21T06:00:32;17.80;99.90
4364;DHT22;15337;48.202;12.770;2022-08-21T06:02:59;17.80;99.90
4364;DHT22;15337;48.202;12.770;2022-08-21T06:05:26;17.80;99.90
4364;DHT22;15337;48.202;12.770;2022-08-21T06:07:53;17.90;99.90
4364;DHT22;15337;48.202;12.770;2022-08-21T06:10:20;17.90;99.90
4364;DHT22;15337;48.202;12.770;2022-08-21T06:12:52;17.90;99.90
4364;DHT22;15337;48.202;12.770;2022-08-21T06:15:20;17.90;99.90
4364;DHT22;15337;48.202;12.770;2022-08-21T06:17:47;17.90;99.90
4364;DHT22;15337;48.202;12.770;2022-08-21T06:20:14;18.00;99.90
4364;DHT22;15337;48.202;12.770;2022-08-21T06:22:41;18.00;99.90
4364;DHT22;15337;48.202;12.770;2022-08-21T06:25:09;18.10;99.90
4364;DHT22;15337;48.202;12.770;2022-08-21T06:27:36;18.10;99.90
4364;DHT22;15337;48.202;12.770;2022-08-21T06:30:05;18.20;99.90
4364;DHT22;15337;48.202;12.770;2022-08-21T06:32:32;18.20;99.90
4364;DHT22;15337;48.202;12.770;2022-08-21T06:34:59;18.30;99.90
4364;DHT22;15337;48.202;12.770;2022-08-21T06:37:26;18.30;99.90
4364;DHT22;15337;48.202;12.770;2022-08-21T06:39:53;18.30;99.90
4364;DHT22;15337;48.202;12.770;2022-08-21T06:42:20;18.40;99.90
4364;DHT22;15337;48.202;12.770;2022-08-21T06:44:47;18.50;99.90
4364;DHT22;15337;48.202;12.770;2022-08-21T06:47:15;18.60;99.90
4364;DHT22;15337;48.202;12.770;2022-08-21T06:49:42;18.60;99.90
4364;DHT22;15337;48.202;12.770;2022-08-21T06:52:10;18.60;99.90
4364;DHT22;15337;48.202;12.770;2022-08-21T06:54:38;18.70;99.90
4364;DHT22;15337;48.202;12.770;2022-08-21T06:57:05;18.80;99.90
4364;DHT22;15337;48.202;12.770;2022-08-21T06:59:32;18.80;99.90
4364;DHT22;15337;48.202;12.770;2022-08-21T07:02:00;18.90;99.90
4364;DHT22;15337;48.202;12.770;2022-08-21T07:04:28;18.90;99.90
4364;DHT22;15337;48.202;12.770;2022-08-21T07:06:55;18.90;99.90
4364;DHT22;15337;48.202;12.770;2022-08-21T07:09:22;19.00;99.90
4364;DHT22;15337;48.202;12.770;2022-08-21T07:11:51;19.00;99.90
4364;DHT22;15337;48.202;12.770;2022-08-21T07:14:18;19.00;99.90
4364;DHT22;15337;48.202;12.770;2022-08-21T07:16:46;19.10;99.90
4364;DHT22;15337;48.202;12.770;2022-08-21T07:19:12;19.20;99.90
4364;DHT22;15337;48.202;12.770;2022-08-21T07:21:41;19.20;99.90
4364;DHT22;15337;48.202;12.770;2022-08-21T07:24:08;19.30;99.90
4364;DHT22;15337;48.202;12.770;2022-08-21T07:26:35;19.30;99.90
4364;DHT22;15337;48.202;12.770;2022-08-21T07:29:03;19.40;99.90
4364;DHT22;15337;48.202;12.770;2022-08-21T07:31:30;19.30;99.90
4364;DHT22;15337;48.202;12.770;2022-08-21T07:33:57;19.40;99.90
4364;DHT22;15337;48.202;12.770;2022-08-21T07:36:24;19.40;99.90
4364;DHT22;15337;48.202;12.770;2022-08-21T07:38:53;19.40;99.90
4364;DHT22;15337;48.202;12.770;2022-08-21T07:41:21;19.40;99.90
4364;DHT22;15337;48.202;12.770;2022-08-21T07:43:49;19.40;99.90
4364;DHT22;15337;48.202;12.770;2022-08-21T07:46:16;19.50;99.90
4364;DHT22;15337;48.202;12.770;2022-08-21T07:48:43;19.60;99.90
4364;DHT22;15337;48.202;12.770;2022-08-21T07:51:13;19.60;99.90
4364;DHT22;15337;48.202;12.770;2022-08-21T07:53:40;19.70;99.90
4364;DHT22;15337;48.202;12.770;2022-08-21T07:56:09;19.80;99.90
4364;DHT22;15337;48.202;12.770;2022-08-21T07:58:36;20.00;99.90
4364;DHT22;15337;48.202;12.770;2022-08-21T08:01:05;20.30;99.90
4364;DHT22;15337;48.202;12.770;2022-08-21T08:03:32;20.30;99.90
4364;DHT22;15337;48.202;12.770;2022-08-21T08:05:59;20.20;99.90
4364;DHT22;15337;48.202;12.770;2022-08-21T08:08:25;20.20;99.90
4364;DHT22;15337;48.202;12.770;2022-08-21T08:10:53;20.30;99.90
4364;DHT22;15337;48.202;12.770;2022-08-21T08:13:24;20.20;99.90
4364;DHT22;15337;48.202;12.770;2022-08-21T08:15:51;20.40;99.90
4364;DHT22;15337;48.202;12.770;2022-08-21T08:18:18;20.50;99.90
4364;DHT22;15337;48.202;12.770;2022-08-21T08:20:45;20.60;99.90
4364;DHT22;15337;48.202;12.770;2022-08-21T08:23:13;20.80;99.90
4364;DHT22;15337;48.202;12.770;2022-08-21T08:25:40;20.90;99.90
4364;DHT22;15337;48.202;12.770;2022-08-21T08:28:07;21.00;99.90
4364;DHT22;15337;48.202;12.770;2022-08-21T08:30:35;21.00;99.90
4364;DHT22;15337;48.202;12.770;2022-08-21T08:33:02;21.10;99.90
4364;DHT22;15337;48.202;12.770;2022-08-21T08:35:29;21.10;99.90
4364;DHT22;15337;48.202;12.770;2022-08-21T08:37:56;21.20;99.90
4364;DHT22;15337;48.202;12.770;2022-08-21T08:40:30;21.30;99.90
4364;DHT22;15337;48.202;12.770;2022-08-21T08:43:01;21.40;99.90
4364;DHT22;15337;48.202;12.770;2022-08-21T08:45:30;21.60;99.90
4364;DHT22;15337;48.202;12.770;2022-08-21T08:48:01;21.70;99.90
4364;DHT22;15337;48.202;12.770;2022-08-21T08:50:39;21.80;99.90
4364;DHT22;15337;48.202;12.770;2022-08-21T08:53:11;22.10;99.90
4364;DHT22;15337;48.202;12.770;2022-08-21T08:55:42;22.20;99.90
4364;DHT22;15337;48.202;12.770;2022-08-21T08:58:13;22.30;99.90
4364;DHT22;15337;48.202;12.770;2022-08-21T09:00:43;22.50;99.90
4364;DHT22;15337;48.202;12.770;2022-08-21T09:03:12;22.80;99.90
4364;DHT22;15337;48.202;12.770;2022-08-21T09:05:43;22.90;99.90
4364;DHT22;15337;48.202;12.770;2022-08-21T09:08:28;23.00;99.90
4364;DHT22;15337;48.202;12.770;2022-08-21T09:11:02;22.90;99.90
4364;DHT22;15337;48.202;12.770;2022-08-21T09:13:43;22.90;99.90
4364;DHT22;15337;48.202;12.770;2022-08-21T09:16:20;22.90;99.90
4364;DHT22;15337;48.202;12.770;2022-08-21T09:18:58;22.80;99.90
4364;DHT22;15337;48.202;12.770;2022-08-21T09:21:35;23.10;99.90
4364;DHT22;15337;48.202;12.770;2022-08-21T09:24:18;23.20;99.90
4364;DHT22;15337;48.202;12.770;2022-08-21T09:26:52;23.30;99.90
4364;DHT22;15337;48.202;12.770;2022-08-21T09:29:25;23.30;99.90
4364;DHT22;15337;48.202;12.770;2022-08-21T09:31:54;23.50;99.90
4364;DHT22;15337;48.202;12.770;2022-08-21T09:34:26;23.60;99.90
4364;DHT22;15337;48.202;12.770;2022-08-21T09:36:55;23.80;99.90
4364;DHT22;15337;48.202;12.770;2022-08-21T09:39:25;23.80;99.30
4364;DHT22;15337;48.202;12.770;2022-08-21T09:41:57;23.90;99.90
4364;DHT22;15337;48.202;12.770;2022-08-21T09:44:27;24.20;99.90
4364;DHT22;15337;48.202;12.770;2022-08-21T09:46:55;24.50;99.90
4364;DHT22;15337;48.202;12.770;2022-08-21T09:49:32;24.40;99.90
4364;DHT22;15337;48.202;12.770;2022-08-21T09:52:00;24.50;99.10
4364;DHT22;15337;48.202;12.770;2022-08-21T09:54:31;24.60;98.70
4364;DHT22;15337;48.202;12.770;2022-08-21T09:57:00;24.80;99.90
4364;DHT22;15337;48.202;12.770;2022-08-21T09:59:45;24.80;96.60
4364;DHT22;15337;48.202;12.770;2022-08-21T10:02:25;24.80;98.50
4364;DHT22;15337;48.202;12.770;2022-08-21T10:04:56;24.90;96.30
4364;DHT22;15337;48.202;12.770;2022-08-21T10:07:26;24.80;93.30
4364;DHT22;15337;48.202;12.770;2022-08-21T10:10:03;24.80;96.00
4364;DHT22;15337;48.202;12.770;2022-08-21T10:12:38;25.10;95.60
4364;DHT22;15337;48.202;12.770;2022-08-21T10:15:13;25.10;95.50
4364;DHT22;15337;48.202;12.770;2022-08-21T10:17:52;25.20;94.90
4364;DHT22;15337;48.202;12.770;2022-08-21T10:20:25;25.20;94.20
4364;DHT22;15337;48.202;12.770;2022-08-21T10:23:03;25.30;93.10
4364;DHT22;15337;48.202;12.770;2022-08-21T10:25:39;25.50;94.20
4364;DHT22;15337;48.202;12.770;2022-08-21T10:28:16;25.50;93.60
4364;DHT22;15337;48.202;12.770;2022-08-21T10:30:49;25.30;92.70
4364;DHT22;15337;48.202;12.770;2022-08-21T10:33:30;25.20;93.40
4364;DHT22;15337;48.202;12.770;2022-08-21T10:36:06;25.20;92.50
4364;DHT22;15337;48.202;12.770;2022-08-21T10:38:49;25.40;92.40
4364;DHT22;15337;48.202;12.770;2022-08-21T10:41:31;25.50;91.70
4364;DHT22;15337;48.202;12.770;2022-08-21T10:44:08;25.40;92.50
4364;DHT22;15337;48.202;12.770;2022-08-21T10:46:49;25.40;90.80
4364;DHT22;15337;48.202;12.770;2022-08-21T10:49:24;25.50;91.50
4364;DHT22;15337;48.202;12.770;2022-08-21T10:52:10;25.60;91.90
4364;DHT22;15337;48.202;12.770;2022-08-21T10:54:49;25.60;92.70
4364;DHT22;15337;48.202;12.770;2022-08-21T10:57:22;25.50;92.20
4364;DHT22;15337;48.202;12.770;2022-08-21T10:59:57;25.30;90.60
4364;DHT22;15337;48.202;12.770;2022-08-21T11:02:31;25.40;92.60
4364;DHT22;15337;48.202;12.770;2022-08-21T11:05:02;25.40;92.30
4364;DHT22;15337;48.202;12.770;2022-08-21T11:07:37;25.30;92.60
4364;DHT22;15337;48.202;12.770;2022-08-21T11:10:10;25.20;91.90
4364;DHT22;15337;48.202;12.770;2022-08-21T11:12:42;25.20;91.80
4364;DHT22;15337;48.202;12.770;2022-08-21T11:15:26;25.20;92.10
4364;DHT22;15337;48.202;12.770;2022-08-21T11:18:00;25.20;91.20
4364;DHT22;15337;48.202;12.770;2022-08-21T11:20:32;25.30;90.70
4364;DHT22;15337;48.202;12.770;2022-08-21T11:23:07;25.40;91.30
4364;DHT22;15337;48.202;12.770;2022-08-21T11:25:38;25.40;91.50
4364;DHT22;15337;48.202;12.770;2022-08-21T11:28:09;25.40;91.10
4364;DHT22;15337;48.202;12.770;2022-08-21T11:30:46;25.30;90.50
4364;DHT22;15337;48.202;12.770;2022-08-21T11:33:26;25.30;90.50
4364;DHT22;15337;48.202;12.770;2022-08-21T11:36:00;25.30;91.20
4364;DHT22;15337;48.202;12.770;2022-08-21T11:38:35;25.20;91.10
4364;DHT22;15337;48.202;12.770;2022-08-21T11:41:21;25.10;90.90
4364;DHT22;15337;48.202;12.770;2022-08-21T11:43:54;25.10;91.30
4364;DHT22;15337;48.202;12.770;2022-08-21T11:46:34;25.20;91.20
4364;DHT22;15337;48.202;12.770;2022-08-21T11:49:26;25.20;92.20
4364;DHT22;15337;48.202;12.770;2022-08-21T11:52:07;25.20;89.00
4364;DHT22;15337;48.202;12.770;2022-08-21T11:54:42;25.30;87.10
4364;DHT22;15337;48.202;12.770;2022-08-21T11:57:16;25.50;88.30
4364;DHT22;15337;48.202;12.770;2022-08-21T11:59:48;25.60;86.20
4364;DHT22;15337;48.202;12.770;2022-08-21T12:02:19;25.60;88.70
4364;DHT22;15337;48.202;12.770;2022-08-21T12:04:51;25.40;87.70
4364;DHT22;15337;48.202;12.770;2022-08-21T12:07:30;25.20;86.70
4364;DHT22;15337;48.202;12.770;2022-08-21T12:10:00;25.20;88.80
4364;DHT22;15337;48.202;12.770;2022-08-21T12:12:29;25.10;86.70
4364;DHT22;15337;48.202;12.770;2022-08-21T12:15:25;25.10;87.10
4364;DHT22;15337;48.202;12.770;2022-08-21T12:17:56;25.20;84.40
4364;DHT22;15337;48.202;12.770;2022-08-21T12:20:39;25.20;86.10
4364;DHT22;15337;48.202;12.770;2022-08-21T12:23:17;25.20;83.70
4364;DHT22;15337;48.202;12.770;2022-08-21T12:25:58;25.30;85.30
4364;DHT22;15337;48.202;12.770;2022-08-21T12:28:27;25.20;85.70
4364;DHT22;15337;48.202;12.770;2022-08-21T12:30:56;25.10;85.30
4364;DHT22;15337;48.202;12.770;2022-08-21T12:33:26;25.10;83.60
4364;DHT22;15337;48.202;12.770;2022-08-21T12:36:02;25.00;81.30
4364;DHT22;15337;48.202;12.770;2022-08-21T12:38:33;25.30;81.00
4364;DHT22;15337;48.202;12.770;2022-08-21T12:41:05;25.40;83.00
4364;DHT22;15337;48.202;12.770;2022-08-21T12:43:36;25.20;80.20
4364;DHT22;15337;48.202;12.770;2022-08-21T12:46:04;25.00;80.10
4364;DHT22;15337;48.202;12.770;2022-08-21T12:48:35;25.00;82.90
4364;DHT22;15337;48.202;12.770;2022-08-21T12:51:09;24.90;80.20
4364;DHT22;15337;48.202;12.770;2022-08-21T12:53:41;25.00;81.60
4364;DHT22;15337;48.202;12.770;2022-08-21T12:56:14;25.40;84.20
4364;DHT22;15337;48.202;12.770;2022-08-21T12:58:45;25.50;82.70
4364;DHT22;15337;48.202;12.770;2022-08-21T13:01:17;25.60;78.80
4364;DHT22;15337;48.202;12.770;2022-08-21T13:03:46;25.80;80.20
4364;DHT22;15337;48.202;12.770;2022-08-21T13:06:14;25.90;77.30
4364;DHT22;15337;48.202;12.770;2022-08-21T13:08:43;26.00;76.20
4364;DHT22;15337;48.202;12.770;2022-08-21T13:11:15;25.80;75.10
4364;DHT22;15337;48.202;12.770;2022-08-21T13:13:48;25.60;74.60
4364;DHT22;15337;48.202;12.770;2022-08-21T13:16:19;25.40;75.20
4364;DHT22;15337;48.202;12.770;2022-08-21T13:18:58;25.50;74.20
4364;DHT22;15337;48.202;12.770;2022-08-21T13:21:29;25.40;73.30
4364;DHT22;15337;48.202;12.770;2022-08-21T13:24:11;25.30;73.60
4364;DHT22;15337;48.202;12.770;2022-08-21T13:26:40;25.10;73.90
4364;DHT22;15337;48.202;12.770;2022-08-21T13:29:08;25.10;73.20
4364;DHT22;15337;48.202;12.770;2022-08-21T13:31:36;25.50;75.50
4364;DHT22;15337;48.202;12.770;2022-08-21T13:34:05;25.90;74.20
4364;DHT22;15337;48.202;12.770;2022-08-21T13:36:35;26.30;76.30
4364;DHT22;15337;48.202;12.770;2022-08-21T13:39:04;26.70;74.00
4364;DHT22;15337;48.202;12.770;2022-08-21T13:41:34;27.00;72.60
4364;DHT22;15337;48.202;12.770;2022-08-21T13:44:13;27.10;68.00
4364;DHT22;15337;48.202;12.770;2022-08-21T13:46:40;27.20;68.30
4364;DHT22;15337;48.202;12.770;2022-08-21T13:49:08;27.20;68.00
4364;DHT22;15337;48.202;12.770;2022-08-21T13:51:36;27.30;67.40
4364;DHT22;15337;48.202;12.770;2022-08-21T13:54:14;27.50;66.90
4364;DHT22;15337;48.202;12.770;2022-08-21T13:56:44;27.80;66.60
4364;DHT22;15337;48.202;12.770;2022-08-21T13:59:24;28.10;64.40
4364;DHT22;15337;48.202;12.770;2022-08-21T14:01:53;28.20;61.60
4364;DHT22;15337;48.202;12.770;2022-08-21T14:04:26;28.10;60.20
4364;DHT22;15337;48.202;12.770;2022-08-21T14:06:56;28.30;60.60
4364;DHT22;15337;48.202;12.770;2022-08-21T14:09:28;28.40;61.60
4364;DHT22;15337;48.202;12.770;2022-08-21T14:11:56;28.70;60.50
4364;DHT22;15337;48.202;12.770;2022-08-21T14:14:29;28.50;59.20
4364;DHT22;15337;48.202;12.770;2022-08-21T14:16:58;28.60;59.00
4364;DHT22;15337;48.202;12.770;2022-08-21T14:19:27;28.80;60.00
4364;DHT22;15337;48.202;12.770;2022-08-21T14:21:54;29.20;60.80
4364;DHT22;15337;48.202;12.770;2022-08-21T14:24:27;29.40;58.60
4364;DHT22;15337;48.202;12.770;2022-08-21T14:26:58;29.30;56.80
4364;DHT22;15337;48.202;12.770;2022-08-21T14:29:34;29.20;58.20
4364;DHT22;15337;48.202;12.770;2022-08-21T14:32:09;29.30;57.20
4364;DHT22;15337;48.202;12.770;2022-08-21T14:34:37;29.50;56.10
4364;DHT22;15337;48.202;12.770;2022-08-21T14:37:04;29.70;54.00
4364;DHT22;15337;48.202;12.770;2022-08-21T14:39:31;29.70;54.00
4364;DHT22;15337;48.202;12.770;2022-08-21T14:41:58;29.70;52.60
4364;DHT22;15337;48.202;12.770;2022-08-21T14:44:26;29.80;53.30
4364;DHT22;15337;48.202;12.770;2022-08-21T14:46:55;29.80;51.70
4364;DHT22;15337;48.202;12.770;2022-08-21T14:49:24;29.70;55.50
4364;DHT22;15337;48.202;12.770;2022-08-21T14:51:53;29.80;55.30
4364;DHT22;15337;48.202;12.770;2022-08-21T14:54:22;29.70;55.60
4364;DHT22;15337;48.202;12.770;2022-08-21T14:56:49;29.90;54.90
4364;DHT22;15337;48.202;12.770;2022-08-21T14:59:17;30.00;53.80
4364;DHT22;15337;48.202;12.770;2022-08-21T15:01:45;30.20;54.40
4364;DHT22;15337;48.202;12.770;2022-08-21T15:04:13;30.20;55.90
4364;DHT22;15337;48.202;12.770;2022-08-21T15:06:40;30.40;55.20
4364;DHT22;15337;48.202;12.770;2022-08-21T15:09:07;30.40;55.10
4364;DHT22;15337;48.202;12.770;2022-08-21T15:11:34;30.40;54.20
4364;DHT22;15337;48.202;12.770;2022-08-21T15:14:03;30.20;52.60
4364;DHT22;15337;48.202;12.770;2022-08-21T15:16:30;30.10;53.20
4364;DHT22;15337;48.202;12.770;2022-08-21T15:18:57;30.10;54.00
4364;DHT22;15337;48.202;12.770;2022-08-21T15:21:26;30.20;53.00
4364;DHT22;15337;48.202;12.770;2022-08-21T15:23:53;30.10;53.10
4364;DHT22;15337;48.202;12.770;2022-08-21T15:26:22;30.20;53.30
4364;DHT22;15337;48.202;12.770;2022-08-21T15:28:49;30.20;53.00
4364;DHT22;15337;48.202;12.770;2022-08-21T15:31:16;30.00;53.30
4364;DHT22;15337;48.202;12.770;2022-08-21T15:33:43;30.10;52.60
4364;DHT22;15337;48.202;12.770;2022-08-21T15:36:10;30.10;52.90
4364;DHT22;15337;48.202;12.770;2022-08-21T15:38:38;30.20;54.30
4364;DHT22;15337;48.202;12.770;2022-08-21T15:41:05;30.20;53.40
4364;DHT22;15337;48.202;12.770;2022-08-21T15:43:36;30.20;53.40
4364;DHT22;15337;48.202;12.770;2022-08-21T15:46:05;29.80;52.50